sensor_id;sensor_type;location;lat;lon;timestamp;temperature;humidity
41720;DHT22;27405;53.316;-6.294;2022-12-20T00:02:04;8.50;99.90
41720;DHT22;27405;53.316;-6.294;2022-12-20T00:04:29;8.50;99.90
41720;DHT22;27405;53.316;-6.294;2022-12-20T00:06:55;8.50;99.90
41720;DHT22;27405;53.316;-6.294;2022-12-20T00:09:21;8.50;99.90
41720;DHT22;27405;53.316;-6.294;2022-12-20T00:11:47;8.60;99.90
41720;DHT22;27405;53.316;-6.294;2022-12-20T00:14:12;8.60;99.90
41720;DHT22;27405;53.316;-6.294;2022-12-20T00:16:38;8.60;99.90
41720;DHT22;27405;53.316;-6.294;2022-12-20T00:19:05;8.60;99.90
41720;DHT22;27405;53.316;-6.294;2022-12-20T00:21:33;8.60;99.90
41720;DHT22;27405;53.316;-6.294;2022-12-20T00:23:59;8.60;99.90
41720;DHT22;27405;53.316;-6.294;2022-12-20T00:26:30;8.60;99.90
41720;DHT22;27405;53.316;-6.294;2022-12-20T00:28:57;8.60;99.90
41720;DHT22;27405;53.316;-6.294;2022-12-20T00:31:25;8.60;99.90
41720;DHT22;27405;53.316;-6.294;2022-12-20T00:33:53;8.70;99.90
41720;DHT22;27405;53.316;-6.294;2022-12-20T00:36:21;8.70;99.90
41720;DHT22;27405;53.316;-6.294;2022-12-20T00:38:48;8.70;99.90
41720;DHT22;27405;53.316;-6.294;2022-12-20T00:41:19;8.80;99.90
41720;DHT22;27405;53.316;-6.294;2022-12-20T00:43:46;8.80;99.90
41720;DHT22;27405;53.316;-6.294;2022-12-20T00:46:14;8.80;99.90
41720;DHT22;27405;53.316;-6.294;2022-12-20T00:48:40;8.80;99.90
41720;DHT22;27405;53.316;-6.294;2022-12-20T00:51:08;8.90;99.90
41720;DHT22;27405;53.316;-6.294;2022-12-20T00:53:35;8.90;99.90
41720;DHT22;27405;53.316;-6.294;2022-12-20T00:56:02;8.90;99.90
41720;DHT22;27405;53.316;-6.294;2022-12-20T00:58:28;9.00;99.90
41720;DHT22;27405;53.316;-6.294;2022-12-20T01:03:20;8.90;99.90
41720;DHT22;27405;53.316;-6.294;2022-12-20T01:05:53;8.90;99.90
41720;DHT22;27405;53.316;-6.294;2022-12-20T01:08:19;8.90;99.90
41720;DHT22;27405;53.316;-6.294;2022-12-20T01:10:45;8.90;99.90
41720;DHT22;27405;53.316;-6.294;2022-12-20T01:13:11;8.90;99.90
41720;DHT22;27405;53.316;-6.294;2022-12-20T01:15:37;8.90;99.90
41720;DHT22;27405;53.316;-6.294;2022-12-20T01:18:03;8.90;99.90
41720;DHT22;27405;53.316;-6.294;2022-12-20T01:20:29;9.00;99.90
41720;DHT22;27405;53.316;-6.294;2022-12-20T01:22:55;9.00;99.90
41720;DHT22;27405;53.316;-6.294;2022-12-20T01:25:20;9.10;99.90
41720;DHT22;27405;53.316;-6.294;2022-12-20T01:27:46;9.10;99.90
41720;DHT22;27405;53.316;-6.294;2022-12-20T01:30:12;9.10;99.90
41720;DHT22;27405;53.316;-6.294;2022-12-20T01:32:38;9.20;99.90
41720;DHT22;27405;53.316;-6.294;2022-12-20T01:35:04;9.20;99.90
41720;DHT22;27405;53.316;-6.294;2022-12-20T01:37:30;9.20;99.90
41720;DHT22;27405;53.316;-6.294;2022-12-20T01:39:56;9.20;99.90
41720;DHT22;27405;53.316;-6.294;2022-12-20T01:42:21;9.20;99.90
41720;DHT22;27405;53.316;-6.294;2022-12-20T01:44:56;9.20;99.90
41720;DHT22;27405;53.316;-6.294;2022-12-20T01:47:24;9.20;99.90
41720;DHT22;27405;53.316;-6.294;2022-12-20T01:49:52;9.20;99.90
41720;DHT22;27405;53.316;-6.294;2022-12-20T01:52:21;9.20;99.90
41720;DHT22;27405;53.316;-6.294;2022-12-20T01:57:51;9.10;99.90
41720;DHT22;27405;53.316;-6.294;2022-12-20T02:00:19;9.10;99.90
41720;DHT22;27405;53.316;-6.294;2022-12-20T02:02:47;9.10;99.90
41720;DHT22;27405;53.316;-6.294;2022-12-20T02:05:14;9.00;99.90
41720;DHT22;27405;53.316;-6.294;2022-12-20T02:07:42;9.00;99.90
41720;DHT22;27405;53.316;-6.294;2022-12-20T02:10:09;9.00;99.90
41720;DHT22;27405;53.316;-6.294;2022-12-20T02:12:46;8.90;99.90
41720;DHT22;27405;53.316;-6.294;2022-12-20T02:20:42;8.80;99.90
41720;DHT22;27405;53.316;-6.294;2022-12-20T02:31:44;8.70;99.90
41720;DHT22;27405;53.316;-6.294;2022-12-20T02:34:14;8.70;99.90
41720;DHT22;27405;53.316;-6.294;2022-12-20T02:36:41;8.70;99.90
41720;DHT22;27405;53.316;-6.294;2022-12-20T02:39:11;8.70;99.90
41720;DHT22;27405;53.316;-6.294;2022-12-20T02:41:43;8.70;99.90
41720;DHT22;27405;53.316;-6.294;2022-12-20T02:44:13;8.60;99.90
41720;DHT22;27405;53.316;-6.294;2022-12-20T02:47:02;8.60;99.90
41720;DHT22;27405;53.316;-6.294;2022-12-20T02:49:32;8.60;99.90
41720;DHT22;27405;53.316;-6.294;2022-12-20T02:52:00;8.60;99.90
41720;DHT22;27405;53.316;-6.294;2022-12-20T02:54:27;8.60;99.90
41720;DHT22;27405;53.316;-6.294;2022-12-20T02:57:01;8.60;99.90
41720;DHT22;27405;53.316;-6.294;2022-12-20T02:59:38;8.50;99.90
41720;DHT22;27405;53.316;-6.294;2022-12-20T03:02:06;8.50;99.90
41720;DHT22;27405;53.316;-6.294;2022-12-20T03:04:36;8.50;99.90
41720;DHT22;27405;53.316;-6.294;2022-12-20T03:07:13;8.50;99.90
41720;DHT22;27405;53.316;-6.294;2022-12-20T03:09:40;8.50;99.90
41720;DHT22;27405;53.316;-6.294;2022-12-20T03:12:08;8.50;99.90
41720;DHT22;27405;53.316;-6.294;2022-12-20T03:14:34;8.50;99.90
41720;DHT22;27405;53.316;-6.294;2022-12-20T03:17:00;8.50;99.90
41720;DHT22;27405;53.316;-6.294;2022-12-20T03:19:25;8.50;99.90
41720;DHT22;27405;53.316;-6.294;2022-12-20T03:21:51;8.50;99.90
41720;DHT22;27405;53.316;-6.294;2022-12-20T03:24:17;8.50;99.90
41720;DHT22;27405;53.316;-6.294;2022-12-20T03:26:43;8.50;99.90
41720;DHT22;27405;53.316;-6.294;2022-12-20T03:29:09;8.50;99.90
41720;DHT22;27405;53.316;-6.294;2022-12-20T03:31:34;8.50;99.90
41720;DHT22;27405;53.316;-6.294;2022-12-20T03:34:01;8.50;99.90
41720;DHT22;27405;53.316;-6.294;2022-12-20T03:36:27;8.50;99.90
41720;DHT22;27405;53.316;-6.294;2022-12-20T03:38:53;8.50;99.90
41720;DHT22;27405;53.316;-6.294;2022-12-20T03:41:20;8.50;99.90
41720;DHT22;27405;53.316;-6.294;2022-12-20T03:43:47;8.50;99.90
41720;DHT22;27405;53.316;-6.294;2022-12-20T03:46:13;8.40;99.90
41720;DHT22;27405;53.316;-6.294;2022-12-20T03:48:39;8.40;99.90
41720;DHT22;27405;53.316;-6.294;2022-12-20T03:51:05;8.40;99.90
41720;DHT22;27405;53.316;-6.294;2022-12-20T03:53:30;8.40;99.90
41720;DHT22;27405;53.316;-6.294;2022-12-20T03:55:56;8.40;99.90
41720;DHT22;27405;53.316;-6.294;2022-12-20T03:58:22;8.30;99.90
41720;DHT22;27405;53.316;-6.294;2022-12-20T04:00:48;8.30;99.90
41720;DHT22;27405;53.316;-6.294;2022-12-20T04:03:14;8.30;99.90
41720;DHT22;27405;53.316;-6.294;2022-12-20T04:05:39;8.30;99.90
41720;DHT22;27405;53.316;-6.294;2022-12-20T04:08:05;8.30;99.90
41720;DHT22;27405;53.316;-6.294;2022-12-20T04:10:31;8.30;99.90
41720;DHT22;27405;53.316;-6.294;2022-12-20T04:12:56;8.30;99.90
41720;DHT22;27405;53.316;-6.294;2022-12-20T04:15:22;8.30;99.90
41720;DHT22;27405;53.316;-6.294;2022-12-20T04:17:48;8.30;99.90
41720;DHT22;27405;53.316;-6.294;2022-12-20T04:20:15;8.30;99.90
41720;DHT22;27405;53.316;-6.294;2022-12-20T04:22:46;8.30;99.90
41720;DHT22;27405;53.316;-6.294;2022-12-20T04:25:12;8.30;99.90
41720;DHT22;27405;53.316;-6.294;2022-12-20T04:27:37;8.30;99.90
41720;DHT22;27405;53.316;-6.294;2022-12-20T04:30:03;8.30;99.90
41720;DHT22;27405;53.316;-6.294;2022-12-20T04:32:29;8.30;99.90
41720;DHT22;27405;53.316;-6.294;2022-12-20T04:34:55;8.30;99.90
41720;DHT22;27405;53.316;-6.294;2022-12-20T04:37:20;8.30;99.90
41720;DHT22;27405;53.316;-6.294;2022-12-20T04:39:46;8.30;99.90
41720;DHT22;27405;53.316;-6.294;2022-12-20T04:42:12;8.30;99.90
41720;DHT22;27405;53.316;-6.294;2022-12-20T04:44:37;8.20;99.90
41720;DHT22;27405;53.316;-6.294;2022-12-20T04:47:03;8.20;99.90
41720;DHT22;27405;53.316;-6.294;2022-12-20T04:49:29;8.20;99.90
41720;DHT22;27405;53.316;-6.294;2022-12-20T04:51:54;8.20;99.90
41720;DHT22;27405;53.316;-6.294;2022-12-20T04:54:40;8.20;99.90
41720;DHT22;27405;53.316;-6.294;2022-12-20T04:57:05;8.20;99.90
41720;DHT22;27405;53.316;-6.294;2022-12-20T04:59:34;8.20;99.90
41720;DHT22;27405;53.316;-6.294;2022-12-20T05:02:00;8.20;99.90
41720;DHT22;27405;53.316;-6.294;2022-12-20T05:04:26;8.20;99.90
41720;DHT22;27405;53.316;-6.294;2022-12-20T05:06:52;8.20;99.90
41720;DHT22;27405;53.316;-6.294;2022-12-20T05:09:17;8.20;99.90
41720;DHT22;27405;53.316;-6.294;2022-12-20T05:11:43;8.20;99.90
41720;DHT22;27405;53.316;-6.294;2022-12-20T05:14:09;8.20;99.90
41720;DHT22;27405;53.316;-6.294;2022-12-20T05:16:35;8.30;99.90
41720;DHT22;27405;53.316;-6.294;2022-12-20T05:19:02;8.30;99.90
41720;DHT22;27405;53.316;-6.294;2022-12-20T05:21:29;8.40;99.90
41720;DHT22;27405;53.316;-6.294;2022-12-20T05:24:13;8.40;99.90
41720;DHT22;27405;53.316;-6.294;2022-12-20T05:26:57;8.40;99.90
41720;DHT22;27405;53.316;-6.294;2022-12-20T05:29:23;8.40;99.90
41720;DHT22;27405;53.316;-6.294;2022-12-20T05:31:49;8.40;99.90
41720;DHT22;27405;53.316;-6.294;2022-12-20T05:34:15;8.40;99.90
41720;DHT22;27405;53.316;-6.294;2022-12-20T05:36:41;8.40;99.90
41720;DHT22;27405;53.316;-6.294;2022-12-20T05:39:07;8.40;99.90
41720;DHT22;27405;53.316;-6.294;2022-12-20T05:41:33;8.30;99.90
41720;DHT22;27405;53.316;-6.294;2022-12-20T05:43:58;8.30;99.90
41720;DHT22;27405;53.316;-6.294;2022-12-20T05:46:24;8.20;99.90
41720;DHT22;27405;53.316;-6.294;2022-12-20T05:48:50;8.20;99.90
41720;DHT22;27405;53.316;-6.294;2022-12-20T05:51:15;8.20;99.90
41720;DHT22;27405;53.316;-6.294;2022-12-20T05:53:41;8.10;99.90
41720;DHT22;27405;53.316;-6.294;2022-12-20T05:56:06;8.10;99.90
41720;DHT22;27405;53.316;-6.294;2022-12-20T05:58:32;8.10;99.90
41720;DHT22;27405;53.316;-6.294;2022-12-20T06:01:03;8.10;99.90
41720;DHT22;27405;53.316;-6.294;2022-12-20T06:03:29;8.10;99.90
41720;DHT22;27405;53.316;-6.294;2022-12-20T06:05:55;8.10;99.90
41720;DHT22;27405;53.316;-6.294;2022-12-20T06:08:21;8.10;99.90
41720;DHT22;27405;53.316;-6.294;2022-12-20T06:10:48;8.10;99.90
41720;DHT22;27405;53.316;-6.294;2022-12-20T06:13:14;8.10;99.90
41720;DHT22;27405;53.316;-6.294;2022-12-20T06:15:40;8.00;99.90
41720;DHT22;27405;53.316;-6.294;2022-12-20T06:18:06;8.00;99.90
41720;DHT22;27405;53.316;-6.294;2022-12-20T06:20:33;8.00;99.90
41720;DHT22;27405;53.316;-6.294;2022-12-20T06:23:00;8.00;99.90
41720;DHT22;27405;53.316;-6.294;2022-12-20T06:25:26;8.00;99.90
41720;DHT22;27405;53.316;-6.294;2022-12-20T06:27:52;8.00;99.90
41720;DHT22;27405;53.316;-6.294;2022-12-20T06:30:18;7.90;99.90
41720;DHT22;27405;53.316;-6.294;2022-12-20T06:32:44;7.90;99.90
41720;DHT22;27405;53.316;-6.294;2022-12-20T06:35:10;7.90;99.90
41720;DHT22;27405;53.316;-6.294;2022-12-20T06:37:36;7.90;99.90
41720;DHT22;27405;53.316;-6.294;2022-12-20T06:40:04;7.90;99.90
41720;DHT22;27405;53.316;-6.294;2022-12-20T06:42:33;7.80;99.90
41720;DHT22;27405;53.316;-6.294;2022-12-20T06:44:59;7.80;99.90
41720;DHT22;27405;53.316;-6.294;2022-12-20T06:47:25;7.80;99.90
41720;DHT22;27405;53.316;-6.294;2022-12-20T06:49:50;7.80;99.90
41720;DHT22;27405;53.316;-6.294;2022-12-20T06:52:16;7.80;99.90
41720;DHT22;27405;53.316;-6.294;2022-12-20T06:54:42;7.80;99.90
41720;DHT22;27405;53.316;-6.294;2022-12-20T06:57:07;7.80;99.90
41720;DHT22;27405;53.316;-6.294;2022-12-20T06:59:33;7.80;99.90
41720;DHT22;27405;53.316;-6.294;2022-12-20T07:01:59;7.80;99.90
41720;DHT22;27405;53.316;-6.294;2022-12-20T07:04:25;7.70;99.90
41720;DHT22;27405;53.316;-6.294;2022-12-20T07:06:51;7.80;99.90
41720;DHT22;27405;53.316;-6.294;2022-12-20T07:09:17;7.80;99.90
41720;DHT22;27405;53.316;-6.294;2022-12-20T07:11:43;7.80;99.90
41720;DHT22;27405;53.316;-6.294;2022-12-20T07:14:08;7.80;99.90
41720;DHT22;27405;53.316;-6.294;2022-12-20T07:16:35;7.80;99.90
41720;DHT22;27405;53.316;-6.294;2022-12-20T07:19:01;7.80;99.90
41720;DHT22;27405;53.316;-6.294;2022-12-20T07:21:26;7.80;99.90
41720;DHT22;27405;53.316;-6.294;2022-12-20T07:23:54;7.80;99.90
41720;DHT22;27405;53.316;-6.294;2022-12-20T07:26:20;7.70;99.90
41720;DHT22;27405;53.316;-6.294;2022-12-20T07:28:46;7.70;99.90
41720;DHT22;27405;53.316;-6.294;2022-12-20T07:31:11;7.70;99.90
41720;DHT22;27405;53.316;-6.294;2022-12-20T07:33:37;7.70;99.90
41720;DHT22;27405;53.316;-6.294;2022-12-20T07:36:11;7.70;99.90
41720;DHT22;27405;53.316;-6.294;2022-12-20T07:38:37;7.70;99.90
41720;DHT22;27405;53.316;-6.294;2022-12-20T07:41:11;7.70;99.90
41720;DHT22;27405;53.316;-6.294;2022-12-20T07:43:37;7.70;99.90
41720;DHT22;27405;53.316;-6.294;2022-12-20T07:46:04;7.70;99.90
41720;DHT22;27405;53.316;-6.294;2022-12-20T07:48:30;7.60;99.90
41720;DHT22;27405;53.316;-6.294;2022-12-20T07:51:40;7.70;99.90
41720;DHT22;27405;53.316;-6.294;2022-12-20T07:54:19;7.60;99.90
41720;DHT22;27405;53.316;-6.294;2022-12-20T07:56:49;7.60;99.90
41720;DHT22;27405;53.316;-6.294;2022-12-20T07:59:19;7.50;99.90
41720;DHT22;27405;53.316;-6.294;2022-12-20T08:01:46;7.50;99.90
41720;DHT22;27405;53.316;-6.294;2022-12-20T08:04:19;7.50;99.90
41720;DHT22;27405;53.316;-6.294;2022-12-20T08:06:46;7.50;99.90
41720;DHT22;27405;53.316;-6.294;2022-12-20T08:09:13;7.50;99.90
41720;DHT22;27405;53.316;-6.294;2022-12-20T08:11:43;7.50;99.90
41720;DHT22;27405;53.316;-6.294;2022-12-20T08:14:10;7.40;99.90
41720;DHT22;27405;53.316;-6.294;2022-12-20T08:16:36;7.50;99.90
41720;DHT22;27405;53.316;-6.294;2022-12-20T08:19:01;7.50;99.90
41720;DHT22;27405;53.316;-6.294;2022-12-20T08:21:28;7.50;99.90
41720;DHT22;27405;53.316;-6.294;2022-12-20T08:23:54;7.40;99.90
41720;DHT22;27405;53.316;-6.294;2022-12-20T08:26:20;7.40;99.90
41720;DHT22;27405;53.316;-6.294;2022-12-20T08:28:45;7.40;99.90
41720;DHT22;27405;53.316;-6.294;2022-12-20T08:31:11;7.40;99.90
41720;DHT22;27405;53.316;-6.294;2022-12-20T08:33:37;7.40;99.90
41720;DHT22;27405;53.316;-6.294;2022-12-20T08:36:06;7.40;99.90
41720;DHT22;27405;53.316;-6.294;2022-12-20T08:38:33;7.40;99.90
41720;DHT22;27405;53.316;-6.294;2022-12-20T08:41:04;7.40;99.90
41720;DHT22;27405;53.316;-6.294;2022-12-20T08:43:31;7.40;99.90
41720;DHT22;27405;53.316;-6.294;2022-12-20T08:45:57;7.40;99.90
41720;DHT22;27405;53.316;-6.294;2022-12-20T08:48:23;7.30;99.90
41720;DHT22;27405;53.316;-6.294;2022-12-20T08:50:56;7.30;99.90
41720;DHT22;27405;53.316;-6.294;2022-12-20T08:53:22;7.30;99.90
41720;DHT22;27405;53.316;-6.294;2022-12-20T08:55:49;7.30;99.90
41720;DHT22;27405;53.316;-6.294;2022-12-20T08:58:14;7.30;99.90
41720;DHT22;27405;53.316;-6.294;2022-12-20T09:00:40;7.30;99.90
41720;DHT22;27405;53.316;-6.294;2022-12-20T09:03:06;7.40;99.90
41720;DHT22;27405;53.316;-6.294;2022-12-20T09:05:33;7.40;99.90
41720;DHT22;27405;53.316;-6.294;2022-12-20T09:07:58;7.40;99.90
41720;DHT22;27405;53.316;-6.294;2022-12-20T09:10:24;7.40;99.90
41720;DHT22;27405;53.316;-6.294;2022-12-20T09:12:50;7.40;99.90
41720;DHT22;27405;53.316;-6.294;2022-12-20T09:15:16;7.30;99.90
41720;DHT22;27405;53.316;-6.294;2022-12-20T09:17:41;7.30;99.90
41720;DHT22;27405;53.316;-6.294;2022-12-20T09:20:07;7.30;99.90
41720;DHT22;27405;53.316;-6.294;2022-12-20T09:22:33;7.30;99.90
41720;DHT22;27405;53.316;-6.294;2022-12-20T09:24:59;7.30;99.90
41720;DHT22;27405;53.316;-6.294;2022-12-20T09:27:24;7.30;99.90
41720;DHT22;27405;53.316;-6.294;2022-12-20T09:29:50;7.40;99.90
41720;DHT22;27405;53.316;-6.294;2022-12-20T09:32:15;7.30;99.90
41720;DHT22;27405;53.316;-6.294;2022-12-20T09:34:41;7.40;99.90
41720;DHT22;27405;53.316;-6.294;2022-12-20T09:37:07;7.40;99.90
41720;DHT22;27405;53.316;-6.294;2022-12-20T09:39:32;7.40;99.90
41720;DHT22;27405;53.316;-6.294;2022-12-20T09:41:58;7.40;99.90
41720;DHT22;27405;53.316;-6.294;2022-12-20T09:44:32;7.40;99.90
41720;DHT22;27405;53.316;-6.294;2022-12-20T09:47:03;7.40;99.90
41720;DHT22;27405;53.316;-6.294;2022-12-20T09:49:32;7.40;99.90
41720;DHT22;27405;53.316;-6.294;2022-12-20T10:00:15;7.50;99.90
41720;DHT22;27405;53.316;-6.294;2022-12-20T10:02:41;7.50;99.90
41720;DHT22;27405;53.316;-6.294;2022-12-20T10:05:15;7.60;99.90
41720;DHT22;27405;53.316;-6.294;2022-12-20T10:10:54;7.60;99.90
41720;DHT22;27405;53.316;-6.294;2022-12-20T10:18:45;7.60;99.90
41720;DHT22;27405;53.316;-6.294;2022-12-20T10:21:35;7.60;99.90
41720;DHT22;27405;53.316;-6.294;2022-12-20T10:24:11;7.70;99.90
41720;DHT22;27405;53.316;-6.294;2022-12-20T10:26:41;7.70;99.90
41720;DHT22;27405;53.316;-6.294;2022-12-20T10:29:07;7.60;99.90
41720;DHT22;27405;53.316;-6.294;2022-12-20T10:31:33;7.60;99.90
41720;DHT22;27405;53.316;-6.294;2022-12-20T10:33:59;7.70;99.90
41720;DHT22;27405;53.316;-6.294;2022-12-20T10:36:31;7.70;99.90
41720;DHT22;27405;53.316;-6.294;2022-12-20T10:38:59;7.70;99.90
41720;DHT22;27405;53.316;-6.294;2022-12-20T10:41:47;7.80;99.90
41720;DHT22;27405;53.316;-6.294;2022-12-20T10:44:24;7.80;99.90
41720;DHT22;27405;53.316;-6.294;2022-12-20T10:46:58;7.80;99.90
41720;DHT22;27405;53.316;-6.294;2022-12-20T10:49:31;7.90;99.90
41720;DHT22;27405;53.316;-6.294;2022-12-20T10:52:00;7.90;99.90
41720;DHT22;27405;53.316;-6.294;2022-12-20T10:57:14;8.00;99.90
41720;DHT22;27405;53.316;-6.294;2022-12-20T10:59:46;8.00;99.90
41720;DHT22;27405;53.316;-6.294;2022-12-20T11:02:37;8.00;99.90
41720;DHT22;27405;53.316;-6.294;2022-12-20T11:07:52;8.00;99.90
41720;DHT22;27405;53.316;-6.294;2022-12-20T11:10:22;8.10;99.90
41720;DHT22;27405;53.316;-6.294;2022-12-20T11:12:55;8.10;99.90
41720;DHT22;27405;53.316;-6.294;2022-12-20T11:15:27;8.20;99.90
41720;DHT22;27405;53.316;-6.294;2022-12-20T11:18:16;8.20;99.90
41720;DHT22;27405;53.316;-6.294;2022-12-20T11:23:47;8.20;99.90
41720;DHT22;27405;53.316;-6.294;2022-12-20T11:37:26;8.20;99.90
41720;DHT22;27405;53.316;-6.294;2022-12-20T11:40:03;8.20;99.90
41720;DHT22;27405;53.316;-6.294;2022-12-20T11:42:46;8.20;99.90
41720;DHT22;27405;53.316;-6.294;2022-12-20T11:51:21;8.30;99.90
41720;DHT22;27405;53.316;-6.294;2022-12-20T11:56:20;8.30;99.90
41720;DHT22;27405;53.316;-6.294;2022-12-20T11:59:04;8.30;99.90
41720;DHT22;27405;53.316;-6.294;2022-12-20T12:01:41;8.30;99.90
41720;DHT22;27405;53.316;-6.294;2022-12-20T12:04:15;8.30;99.90
41720;DHT22;27405;53.316;-6.294;2022-12-20T12:06:48;8.40;99.90
41720;DHT22;27405;53.316;-6.294;2022-12-20T12:12:23;8.40;99.90
41720;DHT22;27405;53.316;-6.294;2022-12-20T12:18:04;8.40;99.90
41720;DHT22;27405;53.316;-6.294;2022-12-20T12:20:47;8.40;99.90
41720;DHT22;27405;53.316;-6.294;2022-12-20T12:25:51;8.40;99.90
41720;DHT22;27405;53.316;-6.294;2022-12-20T12:28:18;8.40;99.90
41720;DHT22;27405;53.316;-6.294;2022-12-20T12:30:52;8.40;99.90
41720;DHT22;27405;53.316;-6.294;2022-12-20T12:33:24;8.40;99.90
41720;DHT22;27405;53.316;-6.294;2022-12-20T12:47:32;8.40;99.90
41720;DHT22;27405;53.316;-6.294;2022-12-20T12:50:02;8.40;99.90
41720;DHT22;27405;53.316;-6.294;2022-12-20T12:52:50;8.40;99.90
41720;DHT22;27405;53.316;-6.294;2022-12-20T12:55:43;8.50;99.90
41720;DHT22;27405;53.316;-6.294;2022-12-20T13:00:53;8.50;99.90
41720;DHT22;27405;53.316;-6.294;2022-12-20T13:03:39;8.40;99.90
41720;DHT22;27405;53.316;-6.294;2022-12-20T13:11:36;8.50;99.90
41720;DHT22;27405;53.316;-6.294;2022-12-20T13:37:57;8.50;99.90
41720;DHT22;27405;53.316;-6.294;2022-12-20T13:40:47;8.50;99.90
41720;DHT22;27405;53.316;-6.294;2022-12-20T13:45:58;8.60;99.90
41720;DHT22;27405;53.316;-6.294;2022-12-20T13:48:51;8.50;99.90
41720;DHT22;27405;53.316;-6.294;2022-12-20T13:51:24;8.50;99.90
41720;DHT22;27405;53.316;-6.294;2022-12-20T13:53:54;8.50;99.90
41720;DHT22;27405;53.316;-6.294;2022-12-20T13:56:54;8.50;99.90
41720;DHT22;27405;53.316;-6.294;2022-12-20T13:59:24;8.50;99.90
41720;DHT22;27405;53.316;-6.294;2022-12-20T14:02:02;8.50;99.90
41720;DHT22;27405;53.316;-6.294;2022-12-20T14:04:39;8.50;99.90
41720;DHT22;27405;53.316;-6.294;2022-12-20T14:07:08;8.50;99.90
41720;DHT22;27405;53.316;-6.294;2022-12-20T14:09:37;8.50;99.90
41720;DHT22;27405;53.316;-6.294;2022-12-20T14:12:15;8.50;99.90
41720;DHT22;27405;53.316;-6.294;2022-12-20T14:14:46;8.50;99.90
41720;DHT22;27405;53.316;-6.294;2022-12-20T14:22:31;8.50;99.90
41720;DHT22;27405;53.316;-6.294;2022-12-20T14:24:57;8.50;99.90
41720;DHT22;27405;53.316;-6.294;2022-12-20T14:27:25;8.50;99.90
41720;DHT22;27405;53.316;-6.294;2022-12-20T14:29:54;8.50;99.90
41720;DHT22;27405;53.316;-6.294;2022-12-20T14:32:20;8.50;99.90
41720;DHT22;27405;53.316;-6.294;2022-12-20T14:34:47;8.50;99.90
41720;DHT22;27405;53.316;-6.294;2022-12-20T14:37:24;8.50;99.90
41720;DHT22;27405;53.316;-6.294;2022-12-20T14:39:59;8.40;99.90
41720;DHT22;27405;53.316;-6.294;2022-12-20T14:42:31;8.40;99.90
41720;DHT22;27405;53.316;-6.294;2022-12-20T14:47:29;8.40;99.90
41720;DHT22;27405;53.316;-6.294;2022-12-20T14:50:00;8.30;99.90
41720;DHT22;27405;53.316;-6.294;2022-12-20T14:52:36;8.30;99.90
41720;DHT22;27405;53.316;-6.294;2022-12-20T14:55:13;8.30;99.90
41720;DHT22;27405;53.316;-6.294;2022-12-20T14:57:51;8.30;99.90
41720;DHT22;27405;53.316;-6.294;2022-12-20T15:10:46;8.30;99.90
41720;DHT22;27405;53.316;-6.294;2022-12-20T15:13:18;8.30;99.90
41720;DHT22;27405;53.316;-6.294;2022-12-20T15:15:44;8.30;99.90
41720;DHT22;27405;53.316;-6.294;2022-12-20T15:18:16;8.20;99.90
41720;DHT22;27405;53.316;-6.294;2022-12-20T15:20:44;8.20;99.90
41720;DHT22;27405;53.316;-6.294;2022-12-20T15:23:19;8.20;99.90
41720;DHT22;27405;53.316;-6.294;2022-12-20T15:25:46;8.10;99.90
41720;DHT22;27405;53.316;-6.294;2022-12-20T15:28:17;8.10;99.90
41720;DHT22;27405;53.316;-6.294;2022-12-20T15:30:45;8.10;99.90
41720;DHT22;27405;53.316;-6.294;2022-12-20T15:33:16;8.10;99.90
41720;DHT22;27405;53.316;-6.294;2022-12-20T15:35:43;8.00;99.90
41720;DHT22;27405;53.316;-6.294;2022-12-20T15:38:13;8.00;99.90
41720;DHT22;27405;53.316;-6.294;2022-12-20T15:40:41;7.90;99.90
41720;DHT22;27405;53.316;-6.294;2022-12-20T15:43:18;7.90;99.90
41720;DHT22;27405;53.316;-6.294;2022-12-20T15:45:47;7.90;99.90
41720;DHT22;27405;53.316;-6.294;2022-12-20T15:48:20;7.80;99.90
41720;DHT22;27405;53.316;-6.294;2022-12-20T15:50:54;7.80;99.90
41720;DHT22;27405;53.316;-6.294;2022-12-20T15:53:29;7.80;99.90
41720;DHT22;27405;53.316;-6.294;2022-12-20T15:55:55;7.80;99.90
41720;DHT22;27405;53.316;-6.294;2022-12-20T15:58:22;7.80;99.90
41720;DHT22;27405;53.316;-6.294;2022-12-20T16:00:48;7.80;99.90
41720;DHT22;27405;53.316;-6.294;2022-12-20T16:03:17;7.70;99.90
41720;DHT22;27405;53.316;-6.294;2022-12-20T16:05:43;7.70;99.90
41720;DHT22;27405;53.316;-6.294;2022-12-20T16:08:09;7.70;99.90
41720;DHT22;27405;53.316;-6.294;2022-12-20T16:10:35;7.70;99.90
41720;DHT22;27405;53.316;-6.294;2022-12-20T16:13:01;7.70;99.90
41720;DHT22;27405;53.316;-6.294;2022-12-20T16:15:27;7.60;99.90
41720;DHT22;27405;53.316;-6.294;2022-12-20T16:17:52;7.60;99.90
41720;DHT22;27405;53.316;-6.294;2022-12-20T16:20:18;7.60;99.90
41720;DHT22;27405;53.316;-6.294;2022-12-20T16:22:44;7.60;99.90
41720;DHT22;27405;53.316;-6.294;2022-12-20T16:25:24;7.50;99.90
41720;DHT22;27405;53.316;-6.294;2022-12-20T16:27:50;7.50;99.90
41720;DHT22;27405;53.316;-6.294;2022-12-20T16:30:16;7.50;99.90
41720;DHT22;27405;53.316;-6.294;2022-12-20T16:32:42;7.50;99.90
41720;DHT22;27405;53.316;-6.294;2022-12-20T16:35:23;7.40;99.90
41720;DHT22;27405;53.316;-6.294;2022-12-20T16:37:49;7.40;99.90
41720;DHT22;27405;53.316;-6.294;2022-12-20T16:40:14;7.40;99.90
41720;DHT22;27405;53.316;-6.294;2022-12-20T16:42:40;7.40;99.90
41720;DHT22;27405;53.316;-6.294;2022-12-20T16:45:13;7.30;99.90
41720;DHT22;27405;53.316;-6.294;2022-12-20T16:47:40;7.40;99.90
41720;DHT22;27405;53.316;-6.294;2022-12-20T16:50:06;7.30;99.90
41720;DHT22;27405;53.316;-6.294;2022-12-20T16:52:32;7.30;99.90
41720;DHT22;27405;53.316;-6.294;2022-12-20T16:55:05;7.30;99.90
41720;DHT22;27405;53.316;-6.294;2022-12-20T16:57:31;7.30;99.90
41720;DHT22;27405;53.316;-6.294;2022-12-20T16:59:57;7.30;99.90
41720;DHT22;27405;53.316;-6.294;2022-12-20T17:02:27;7.30;99.90
41720;DHT22;27405;53.316;-6.294;2022-12-20T17:04:52;7.30;99.90
41720;DHT22;27405;53.316;-6.294;2022-12-20T17:07:18;7.30;99.90
41720;DHT22;27405;53.316;-6.294;2022-12-20T17:09:44;7.30;99.90
41720;DHT22;27405;53.316;-6.294;2022-12-20T17:12:15;7.30;99.90
41720;DHT22;27405;53.316;-6.294;2022-12-20T17:14:41;7.30;99.90
41720;DHT22;27405;53.316;-6.294;2022-12-20T17:17:08;7.30;99.90
41720;DHT22;27405;53.316;-6.294;2022-12-20T17:19:34;7.30;99.90
41720;DHT22;27405;53.316;-6.294;2022-12-20T17:22:00;7.30;99.90
41720;DHT22;27405;53.316;-6.294;2022-12-20T17:24:26;7.30;99.90
41720;DHT22;27405;53.316;-6.294;2022-12-20T17:26:51;7.30;99.90
41720;DHT22;27405;53.316;-6.294;2022-12-20T17:29:17;7.30;99.90
41720;DHT22;27405;53.316;-6.294;2022-12-20T17:31:44;7.30;99.90
41720;DHT22;27405;53.316;-6.294;2022-12-20T17:34:19;7.20;99.90
41720;DHT22;27405;53.316;-6.294;2022-12-20T17:36:46;7.20;99.90
41720;DHT22;27405;53.316;-6.294;2022-12-20T17:39:12;7.20;99.90
41720;DHT22;27405;53.316;-6.294;2022-12-20T17:41:38;7.10;99.90
41720;DHT22;27405;53.316;-6.294;2022-12-20T17:44:05;7.10;99.90
41720;DHT22;27405;53.316;-6.294;2022-12-20T17:46:31;7.10;99.90
41720;DHT22;27405;53.316;-6.294;2022-12-20T17:48:57;7.10;99.90
41720;DHT22;27405;53.316;-6.294;2022-12-20T17:51:28;7.10;99.90
41720;DHT22;27405;53.316;-6.294;2022-12-20T17:53:58;7.10;99.90
41720;DHT22;27405;53.316;-6.294;2022-12-20T17:56:27;7.10;99.90
41720;DHT22;27405;53.316;-6.294;2022-12-20T17:58:54;7.10;99.90